sensor_id;sensor_type;location;lat;lon;timestamp;P1;durP1;ratioP1;P2;durP2;ratioP2
7965;SDS011;4028;43.272;26.932;2023-05-07T00:01:41;4.23;;;3.40;;
7965;SDS011;4028;43.272;26.932;2023-05-07T00:04:06;3.97;;;3.27;;
7965;SDS011;4028;43.272;26.932;2023-05-07T00:06:32;7.07;;;3.53;;
7965;SDS011;4028;43.272;26.932;2023-05-07T00:08:58;6.27;;;4.10;;
7965;SDS011;4028;43.272;26.932;2023-05-07T00:11:24;6.17;;;3.53;;
7965;SDS011;4028;43.272;26.932;2023-05-07T00:13:50;5.73;;;3.73;;
7965;SDS011;4028;43.272;26.932;2023-05-07T00:16:16;5.43;;;3.23;;
7965;SDS011;4028;43.272;26.932;2023-05-07T00:18:41;6.20;;;3.20;;
7965;SDS011;4028;43.272;26.932;2023-05-07T00:21:07;4.70;;;3.77;;
7965;SDS011;4028;43.272;26.932;2023-05-07T00:23:32;5.90;;;3.33;;
7965;SDS011;4028;43.272;26.932;2023-05-07T00:25:58;5.17;;;3.00;;
7965;SDS011;4028;43.272;26.932;2023-05-07T00:28:23;3.23;;;2.93;;
7965;SDS011;4028;43.272;26.932;2023-05-07T00:30:49;3.20;;;2.87;;
7965;SDS011;4028;43.272;26.932;2023-05-07T00:33:14;7.63;;;3.80;;
7965;SDS011;4028;43.272;26.932;2023-05-07T00:35:41;3.73;;;3.03;;
7965;SDS011;4028;43.272;26.932;2023-05-07T00:38:07;4.53;;;3.23;;
7965;SDS011;4028;43.272;26.932;2023-05-07T00:40:33;3.73;;;2.90;;
7965;SDS011;4028;43.272;26.932;2023-05-07T00:42:58;5.10;;;3.30;;
7965;SDS011;4028;43.272;26.932;2023-05-07T00:45:27;3.80;;;3.20;;
7965;SDS011;4028;43.272;26.932;2023-05-07T00:47:57;6.03;;;2.93;;
7965;SDS011;4028;43.272;26.932;2023-05-07T00:50:25;3.97;;;2.73;;
7965;SDS011;4028;43.272;26.932;2023-05-07T00:52:51;3.40;;;2.60;;
7965;SDS011;4028;43.272;26.932;2023-05-07T00:55:17;3.93;;;2.90;;
7965;SDS011;4028;43.272;26.932;2023-05-07T00:57:43;4.87;;;3.00;;
7965;SDS011;4028;43.272;26.932;2023-05-07T01:00:09;2.63;;;2.40;;
7965;SDS011;4028;43.272;26.932;2023-05-07T01:02:36;5.70;;;2.97;;
7965;SDS011;4028;43.272;26.932;2023-05-07T01:05:03;4.90;;;3.47;;
7965;SDS011;4028;43.272;26.932;2023-05-07T01:07:31;4.20;;;2.50;;
7965;SDS011;4028;43.272;26.932;2023-05-07T01:09:58;3.53;;;2.80;;
7965;SDS011;4028;43.272;26.932;2023-05-07T01:12:24;5.27;;;3.13;;
7965;SDS011;4028;43.272;26.932;2023-05-07T01:14:50;3.27;;;2.97;;
7965;SDS011;4028;43.272;26.932;2023-05-07T01:17:16;3.80;;;2.93;;
7965;SDS011;4028;43.272;26.932;2023-05-07T01:19:42;3.60;;;2.80;;
7965;SDS011;4028;43.272;26.932;2023-05-07T01:22:09;4.50;;;3.27;;
7965;SDS011;4028;43.272;26.932;2023-05-07T01:24:40;3.93;;;2.83;;
7965;SDS011;4028;43.272;26.932;2023-05-07T01:27:06;2.70;;;2.50;;
7965;SDS011;4028;43.272;26.932;2023-05-07T01:29:32;3.27;;;2.60;;
7965;SDS011;4028;43.272;26.932;2023-05-07T01:31:58;4.03;;;2.70;;
7965;SDS011;4028;43.272;26.932;2023-05-07T01:34:25;2.90;;;2.60;;
7965;SDS011;4028;43.272;26.932;2023-05-07T01:36:53;3.10;;;2.80;;
7965;SDS011;4028;43.272;26.932;2023-05-07T01:39:24;3.77;;;2.90;;
7965;SDS011;4028;43.272;26.932;2023-05-07T01:41:51;5.03;;;2.60;;
7965;SDS011;4028;43.272;26.932;2023-05-07T01:44:16;3.87;;;2.67;;
7965;SDS011;4028;43.272;26.932;2023-05-07T01:46:43;5.40;;;3.03;;
7965;SDS011;4028;43.272;26.932;2023-05-07T01:49:09;3.90;;;3.00;;
7965;SDS011;4028;43.272;26.932;2023-05-07T01:51:35;3.90;;;3.33;;
7965;SDS011;4028;43.272;26.932;2023-05-07T01:54:01;5.23;;;4.20;;
7965;SDS011;4028;43.272;26.932;2023-05-07T01:56:27;5.03;;;4.60;;
7965;SDS011;4028;43.272;26.932;2023-05-07T01:58:52;5.87;;;4.10;;
7965;SDS011;4028;43.272;26.932;2023-05-07T02:01:18;3.73;;;3.43;;
7965;SDS011;4028;43.272;26.932;2023-05-07T02:03:43;3.70;;;3.40;;
7965;SDS011;4028;43.272;26.932;2023-05-07T02:06:09;5.23;;;3.10;;
7965;SDS011;4028;43.272;26.932;2023-05-07T02:08:35;3.33;;;3.03;;
7965;SDS011;4028;43.272;26.932;2023-05-07T02:11:00;4.67;;;3.13;;
7965;SDS011;4028;43.272;26.932;2023-05-07T02:13:28;5.33;;;2.87;;
7965;SDS011;4028;43.272;26.932;2023-05-07T02:15:55;3.73;;;2.60;;
7965;SDS011;4028;43.272;26.932;2023-05-07T02:18:20;2.53;;;2.33;;
7965;SDS011;4028;43.272;26.932;2023-05-07T02:20:45;5.17;;;2.57;;
7965;SDS011;4028;43.272;26.932;2023-05-07T02:23:11;2.77;;;2.37;;
7965;SDS011;4028;43.272;26.932;2023-05-07T02:25:36;3.20;;;2.57;;
7965;SDS011;4028;43.272;26.932;2023-05-07T02:28:02;4.53;;;2.50;;
7965;SDS011;4028;43.272;26.932;2023-05-07T02:30:28;3.17;;;2.40;;
7965;SDS011;4028;43.272;26.932;2023-05-07T02:32:53;3.90;;;2.67;;
7965;SDS011;4028;43.272;26.932;2023-05-07T02:35:19;4.17;;;2.50;;
7965;SDS011;4028;43.272;26.932;2023-05-07T02:37:44;4.73;;;2.60;;
7965;SDS011;4028;43.272;26.932;2023-05-07T02:40:10;3.50;;;3.20;;
7965;SDS011;4028;43.272;26.932;2023-05-07T02:42:36;6.73;;;4.07;;
7965;SDS011;4028;43.272;26.932;2023-05-07T02:45:02;5.93;;;4.53;;
7965;SDS011;4028;43.272;26.932;2023-05-07T02:47:27;7.90;;;4.60;;
7965;SDS011;4028;43.272;26.932;2023-05-07T02:49:54;6.67;;;5.40;;
7965;SDS011;4028;43.272;26.932;2023-05-07T02:52:20;10.50;;;5.07;;
7965;SDS011;4028;43.272;26.932;2023-05-07T02:54:45;10.97;;;5.23;;
7965;SDS011;4028;43.272;26.932;2023-05-07T02:57:11;7.07;;;4.80;;
7965;SDS011;4028;43.272;26.932;2023-05-07T02:59:36;5.97;;;5.10;;
7965;SDS011;4028;43.272;26.932;2023-05-07T03:02:03;7.13;;;4.80;;
7965;SDS011;4028;43.272;26.932;2023-05-07T03:04:29;5.07;;;4.13;;
7965;SDS011;4028;43.272;26.932;2023-05-07T03:06:54;5.33;;;4.10;;
7965;SDS011;4028;43.272;26.932;2023-05-07T03:09:20;5.60;;;3.40;;
7965;SDS011;4028;43.272;26.932;2023-05-07T03:11:45;5.03;;;3.27;;
7965;SDS011;4028;43.272;26.932;2023-05-07T03:14:11;3.67;;;3.20;;
7965;SDS011;4028;43.272;26.932;2023-05-07T03:16:37;6.47;;;3.53;;
7965;SDS011;4028;43.272;26.932;2023-05-07T03:19:03;3.77;;;3.03;;
7965;SDS011;4028;43.272;26.932;2023-05-07T03:21:28;3.80;;;3.03;;
7965;SDS011;4028;43.272;26.932;2023-05-07T03:23:55;3.37;;;3.07;;
7965;SDS011;4028;43.272;26.932;2023-05-07T03:26:21;3.70;;;2.83;;
7965;SDS011;4028;43.272;26.932;2023-05-07T03:28:47;3.87;;;2.53;;
7965;SDS011;4028;43.272;26.932;2023-05-07T03:31:12;2.63;;;2.33;;
7965;SDS011;4028;43.272;26.932;2023-05-07T03:33:47;5.53;;;2.93;;
7965;SDS011;4028;43.272;26.932;2023-05-07T03:36:18;3.97;;;2.87;;
7965;SDS011;4028;43.272;26.932;2023-05-07T03:38:43;7.77;;;2.80;;
7965;SDS011;4028;43.272;26.932;2023-05-07T03:41:09;5.83;;;2.27;;
7965;SDS011;4028;43.272;26.932;2023-05-07T03:43:34;7.87;;;3.53;;
7965;SDS011;4028;43.272;26.932;2023-05-07T03:46:00;5.03;;;3.10;;
7965;SDS011;4028;43.272;26.932;2023-05-07T03:48:25;4.60;;;2.70;;
7965;SDS011;4028;43.272;26.932;2023-05-07T03:50:51;4.63;;;3.40;;
7965;SDS011;4028;43.272;26.932;2023-05-07T03:53:16;4.90;;;2.80;;
7965;SDS011;4028;43.272;26.932;2023-05-07T03:55:42;6.40;;;3.10;;
7965;SDS011;4028;43.272;26.932;2023-05-07T03:58:07;11.50;;;5.70;;
7965;SDS011;4028;43.272;26.932;2023-05-07T04:00:33;9.00;;;4.77;;
7965;SDS011;4028;43.272;26.932;2023-05-07T04:03:03;8.63;;;5.40;;
7965;SDS011;4028;43.272;26.932;2023-05-07T04:05:29;6.97;;;4.97;;
7965;SDS011;4028;43.272;26.932;2023-05-07T04:07:55;10.57;;;5.75;;
7965;SDS011;4028;43.272;26.932;2023-05-07T04:10:20;16.08;;;6.93;;
7965;SDS011;4028;43.272;26.932;2023-05-07T04:12:46;10.10;;;6.80;;
7965;SDS011;4028;43.272;26.932;2023-05-07T04:15:11;7.72;;;4.95;;
7965;SDS011;4028;43.272;26.932;2023-05-07T04:17:37;8.30;;;6.05;;
7965;SDS011;4028;43.272;26.932;2023-05-07T04:20:02;7.07;;;5.32;;
7965;SDS011;4028;43.272;26.932;2023-05-07T04:22:28;9.85;;;5.25;;
7965;SDS011;4028;43.272;26.932;2023-05-07T04:24:54;12.30;;;5.93;;
7965;SDS011;4028;43.272;26.932;2023-05-07T04:27:19;8.10;;;4.75;;
7965;SDS011;4028;43.272;26.932;2023-05-07T04:29:45;6.28;;;4.63;;
7965;SDS011;4028;43.272;26.932;2023-05-07T04:32:12;7.93;;;5.70;;
7965;SDS011;4028;43.272;26.932;2023-05-07T04:34:38;5.93;;;4.78;;
7965;SDS011;4028;43.272;26.932;2023-05-07T04:37:03;4.38;;;3.97;;
7965;SDS011;4028;43.272;26.932;2023-05-07T04:39:29;5.47;;;3.95;;
7965;SDS011;4028;43.272;26.932;2023-05-07T04:41:54;3.40;;;3.10;;
7965;SDS011;4028;43.272;26.932;2023-05-07T04:44:20;4.72;;;2.83;;
7965;SDS011;4028;43.272;26.932;2023-05-07T04:46:46;5.85;;;2.40;;
7965;SDS011;4028;43.272;26.932;2023-05-07T04:49:11;4.82;;;2.47;;
7965;SDS011;4028;43.272;26.932;2023-05-07T04:51:37;6.70;;;2.33;;
7965;SDS011;4028;43.272;26.932;2023-05-07T04:54:03;5.35;;;2.75;;
7965;SDS011;4028;43.272;26.932;2023-05-07T04:56:31;4.68;;;2.63;;
7965;SDS011;4028;43.272;26.932;2023-05-07T04:58:57;4.38;;;2.53;;
7965;SDS011;4028;43.272;26.932;2023-05-07T05:01:22;8.15;;;2.63;;
7965;SDS011;4028;43.272;26.932;2023-05-07T05:03:48;4.95;;;2.47;;
7965;SDS011;4028;43.272;26.932;2023-05-07T05:06:13;5.35;;;2.30;;
7965;SDS011;4028;43.272;26.932;2023-05-07T05:08:39;5.03;;;2.70;;
7965;SDS011;4028;43.272;26.932;2023-05-07T05:11:04;3.57;;;2.90;;
7965;SDS011;4028;43.272;26.932;2023-05-07T05:13:30;2.90;;;2.53;;
7965;SDS011;4028;43.272;26.932;2023-05-07T05:15:56;5.33;;;2.70;;
7965;SDS011;4028;43.272;26.932;2023-05-07T05:18:21;4.60;;;2.60;;
7965;SDS011;4028;43.272;26.932;2023-05-07T05:20:47;5.03;;;2.73;;
7965;SDS011;4028;43.272;26.932;2023-05-07T05:23:12;3.63;;;2.77;;
7965;SDS011;4028;43.272;26.932;2023-05-07T05:25:37;2.67;;;2.30;;
7965;SDS011;4028;43.272;26.932;2023-05-07T05:28:04;3.47;;;2.43;;
7965;SDS011;4028;43.272;26.932;2023-05-07T05:30:29;4.23;;;2.57;;
7965;SDS011;4028;43.272;26.932;2023-05-07T05:32:55;5.97;;;2.50;;
7965;SDS011;4028;43.272;26.932;2023-05-07T05:35:20;3.13;;;2.47;;
7965;SDS011;4028;43.272;26.932;2023-05-07T05:37:46;6.07;;;2.23;;
7965;SDS011;4028;43.272;26.932;2023-05-07T05:40:11;3.10;;;2.47;;
7965;SDS011;4028;43.272;26.932;2023-05-07T05:42:37;4.03;;;2.60;;
7965;SDS011;4028;43.272;26.932;2023-05-07T05:45:02;3.40;;;2.33;;
7965;SDS011;4028;43.272;26.932;2023-05-07T05:47:29;5.47;;;2.85;;
7965;SDS011;4028;43.272;26.932;2023-05-07T05:49:54;3.80;;;2.42;;
7965;SDS011;4028;43.272;26.932;2023-05-07T05:52:20;5.95;;;2.80;;
7965;SDS011;4028;43.272;26.932;2023-05-07T05:54:48;4.15;;;2.72;;
7965;SDS011;4028;43.272;26.932;2023-05-07T05:57:14;4.82;;;2.22;;
7965;SDS011;4028;43.272;26.932;2023-05-07T05:59:40;2.38;;;1.92;;
7965;SDS011;4028;43.272;26.932;2023-05-07T06:02:06;7.30;;;3.00;;
7965;SDS011;4028;43.272;26.932;2023-05-07T06:04:31;6.75;;;2.60;;
7965;SDS011;4028;43.272;26.932;2023-05-07T06:06:57;4.22;;;2.47;;
7965;SDS011;4028;43.272;26.932;2023-05-07T06:09:22;3.17;;;2.80;;
7965;SDS011;4028;43.272;26.932;2023-05-07T06:11:48;4.05;;;2.35;;
7965;SDS011;4028;43.272;26.932;2023-05-07T06:14:13;4.50;;;2.08;;
7965;SDS011;4028;43.272;26.932;2023-05-07T06:16:39;4.35;;;2.88;;
7965;SDS011;4028;43.272;26.932;2023-05-07T06:19:05;5.63;;;2.40;;
7965;SDS011;4028;43.272;26.932;2023-05-07T06:21:30;6.57;;;2.63;;
7965;SDS011;4028;43.272;26.932;2023-05-07T06:23:56;2.58;;;2.13;;
7965;SDS011;4028;43.272;26.932;2023-05-07T06:26:22;4.18;;;2.40;;
7965;SDS011;4028;43.272;26.932;2023-05-07T06:28:47;5.55;;;2.55;;
7965;SDS011;4028;43.272;26.932;2023-05-07T06:31:13;2.95;;;2.30;;
7965;SDS011;4028;43.272;26.932;2023-05-07T06:33:40;3.60;;;2.40;;
7965;SDS011;4028;43.272;26.932;2023-05-07T06:36:06;5.65;;;2.85;;
7965;SDS011;4028;43.272;26.932;2023-05-07T06:38:31;4.57;;;1.98;;
7965;SDS011;4028;43.272;26.932;2023-05-07T06:40:57;2.50;;;2.13;;
7965;SDS011;4028;43.272;26.932;2023-05-07T06:43:22;4.32;;;2.00;;
7965;SDS011;4028;43.272;26.932;2023-05-07T06:45:48;5.50;;;2.50;;
7965;SDS011;4028;43.272;26.932;2023-05-07T06:48:13;4.10;;;2.40;;
7965;SDS011;4028;43.272;26.932;2023-05-07T06:50:39;4.55;;;2.30;;
7965;SDS011;4028;43.272;26.932;2023-05-07T06:53:04;6.38;;;2.20;;
7965;SDS011;4028;43.272;26.932;2023-05-07T06:55:30;2.70;;;2.40;;
7965;SDS011;4028;43.272;26.932;2023-05-07T06:57:55;5.93;;;2.72;;
7965;SDS011;4028;43.272;26.932;2023-05-07T07:00:23;5.20;;;2.45;;
7965;SDS011;4028;43.272;26.932;2023-05-07T07:02:48;3.78;;;2.50;;
7965;SDS011;4028;43.272;26.932;2023-05-07T07:05:14;2.33;;;2.10;;
7965;SDS011;4028;43.272;26.932;2023-05-07T07:07:40;3.45;;;2.25;;
7965;SDS011;4028;43.272;26.932;2023-05-07T07:10:06;2.83;;;2.00;;
7965;SDS011;4028;43.272;26.932;2023-05-07T07:12:32;4.15;;;2.47;;
7965;SDS011;4028;43.272;26.932;2023-05-07T07:14:58;4.32;;;2.55;;
7965;SDS011;4028;43.272;26.932;2023-05-07T07:17:23;5.88;;;2.13;;
7965;SDS011;4028;43.272;26.932;2023-05-07T07:19:49;4.05;;;1.95;;
7965;SDS011;4028;43.272;26.932;2023-05-07T07:22:14;3.55;;;2.25;;
7965;SDS011;4028;43.272;26.932;2023-05-07T07:24:40;7.30;;;2.10;;
7965;SDS011;4028;43.272;26.932;2023-05-07T07:27:05;6.25;;;2.60;;
7965;SDS011;4028;43.272;26.932;2023-05-07T07:29:31;6.25;;;2.38;;
7965;SDS011;4028;43.272;26.932;2023-05-07T07:31:56;2.28;;;2.08;;
7965;SDS011;4028;43.272;26.932;2023-05-07T07:34:22;4.13;;;2.42;;
7965;SDS011;4028;43.272;26.932;2023-05-07T07:36:47;2.60;;;2.40;;
7965;SDS011;4028;43.272;26.932;2023-05-07T07:39:13;6.22;;;2.30;;
7965;SDS011;4028;43.272;26.932;2023-05-07T07:41:38;3.67;;;2.33;;
7965;SDS011;4028;43.272;26.932;2023-05-07T07:44:04;4.97;;;2.40;;
7965;SDS011;4028;43.272;26.932;2023-05-07T07:46:32;3.88;;;2.22;;
7965;SDS011;4028;43.272;26.932;2023-05-07T07:48:58;3.08;;;2.55;;
7965;SDS011;4028;43.272;26.932;2023-05-07T07:51:24;3.35;;;2.30;;
7965;SDS011;4028;43.272;26.932;2023-05-07T07:53:51;3.60;;;2.60;;
7965;SDS011;4028;43.272;26.932;2023-05-07T07:56:17;4.38;;;2.58;;
7965;SDS011;4028;43.272;26.932;2023-05-07T07:58:42;4.07;;;2.40;;
7965;SDS011;4028;43.272;26.932;2023-05-07T08:01:07;5.30;;;2.35;;
7965;SDS011;4028;43.272;26.932;2023-05-07T08:03:33;4.97;;;2.33;;
7965;SDS011;4028;43.272;26.932;2023-05-07T08:05:58;4.70;;;2.47;;
7965;SDS011;4028;43.272;26.932;2023-05-07T08:08:24;4.03;;;2.45;;
7965;SDS011;4028;43.272;26.932;2023-05-07T08:10:49;3.20;;;1.92;;
7965;SDS011;4028;43.272;26.932;2023-05-07T08:13:15;3.65;;;2.78;;
7965;SDS011;4028;43.272;26.932;2023-05-07T08:15:41;4.82;;;2.40;;
7965;SDS011;4028;43.272;26.932;2023-05-07T08:18:06;7.38;;;2.40;;
7965;SDS011;4028;43.272;26.932;2023-05-07T08:20:32;9.48;;;2.53;;
7965;SDS011;4028;43.272;26.932;2023-05-07T08:22:58;6.45;;;2.22;;
7965;SDS011;4028;43.272;26.932;2023-05-07T08:25:24;5.55;;;2.33;;
7965;SDS011;4028;43.272;26.932;2023-05-07T08:27:49;3.40;;;2.20;;
7965;SDS011;4028;43.272;26.932;2023-05-07T08:30:15;2.55;;;1.77;;
7965;SDS011;4028;43.272;26.932;2023-05-07T08:32:40;5.25;;;2.17;;
7965;SDS011;4028;43.272;26.932;2023-05-07T08:35:06;4.88;;;2.10;;
7965;SDS011;4028;43.272;26.932;2023-05-07T08:37:31;3.35;;;2.17;;
7965;SDS011;4028;43.272;26.932;2023-05-07T08:39:57;3.72;;;2.05;;
7965;SDS011;4028;43.272;26.932;2023-05-07T08:42:23;4.72;;;2.00;;
7965;SDS011;4028;43.272;26.932;2023-05-07T08:44:51;2.67;;;2.25;;
7965;SDS011;4028;43.272;26.932;2023-05-07T08:47:18;4.50;;;2.13;;
7965;SDS011;4028;43.272;26.932;2023-05-07T08:49:44;4.55;;;2.10;;
7965;SDS011;4028;43.272;26.932;2023-05-07T08:52:11;3.38;;;1.85;;
7965;SDS011;4028;43.272;26.932;2023-05-07T08:54:37;3.30;;;2.00;;
7965;SDS011;4028;43.272;26.932;2023-05-07T08:57:04;4.03;;;2.30;;
7965;SDS011;4028;43.272;26.932;2023-05-07T08:59:29;3.55;;;2.25;;
7965;SDS011;4028;43.272;26.932;2023-05-07T09:01:55;2.78;;;2.47;;
7965;SDS011;4028;43.272;26.932;2023-05-07T09:04:20;4.38;;;2.30;;
7965;SDS011;4028;43.272;26.932;2023-05-07T09:06:46;6.07;;;2.30;;
7965;SDS011;4028;43.272;26.932;2023-05-07T09:09:16;2.92;;;2.47;;
7965;SDS011;4028;43.272;26.932;2023-05-07T09:11:45;3.40;;;2.30;;
7965;SDS011;4028;43.272;26.932;2023-05-07T09:14:10;3.78;;;2.20;;
7965;SDS011;4028;43.272;26.932;2023-05-07T09:16:35;5.18;;;2.22;;
7965;SDS011;4028;43.272;26.932;2023-05-07T09:19:01;3.13;;;2.15;;
7965;SDS011;4028;43.272;26.932;2023-05-07T09:21:26;5.00;;;1.90;;
7965;SDS011;4028;43.272;26.932;2023-05-07T09:23:52;4.57;;;2.20;;
7965;SDS011;4028;43.272;26.932;2023-05-07T09:26:22;3.08;;;2.33;;
7965;SDS011;4028;43.272;26.932;2023-05-07T09:28:49;6.00;;;2.22;;
7965;SDS011;4028;43.272;26.932;2023-05-07T09:31:15;3.05;;;1.95;;
7965;SDS011;4028;43.272;26.932;2023-05-07T09:33:40;2.80;;;2.30;;
7965;SDS011;4028;43.272;26.932;2023-05-07T09:36:07;2.58;;;1.92;;
7965;SDS011;4028;43.272;26.932;2023-05-07T09:38:35;3.05;;;2.20;;
7965;SDS011;4028;43.272;26.932;2023-05-07T09:41:08;5.93;;;2.35;;
7965;SDS011;4028;43.272;26.932;2023-05-07T09:43:36;5.57;;;2.58;;
7965;SDS011;4028;43.272;26.932;2023-05-07T09:46:12;2.38;;;2.10;;
7965;SDS011;4028;43.272;26.932;2023-05-07T09:48:39;3.25;;;1.98;;
7965;SDS011;4028;43.272;26.932;2023-05-07T09:51:28;2.45;;;2.20;;
7965;SDS011;4028;43.272;26.932;2023-05-07T09:53:56;3.90;;;1.90;;
7965;SDS011;4028;43.272;26.932;2023-05-07T09:56:24;6.03;;;2.10;;
7965;SDS011;4028;43.272;26.932;2023-05-07T09:58:50;4.95;;;2.28;;
7965;SDS011;4028;43.272;26.932;2023-05-07T10:01:17;2.67;;;1.95;;
7965;SDS011;4028;43.272;26.932;2023-05-07T10:03:47;2.42;;;2.10;;
7965;SDS011;4028;43.272;26.932;2023-05-07T10:06:15;7.10;;;1.90;;
7965;SDS011;4028;43.272;26.932;2023-05-07T10:08:42;3.42;;;2.60;;
7965;SDS011;4028;43.272;26.932;2023-05-07T10:11:08;3.72;;;2.47;;
7965;SDS011;4028;43.272;26.932;2023-05-07T10:13:34;2.33;;;2.13;;
7965;SDS011;4028;43.272;26.932;2023-05-07T10:16:01;3.38;;;1.95;;
7965;SDS011;4028;43.272;26.932;2023-05-07T10:18:28;3.28;;;2.20;;
7965;SDS011;4028;43.272;26.932;2023-05-07T10:20:59;3.22;;;2.00;;
7965;SDS011;4028;43.272;26.932;2023-05-07T10:23:33;2.83;;;2.25;;
7965;SDS011;4028;43.272;26.932;2023-05-07T10:26:00;3.53;;;1.90;;
7965;SDS011;4028;43.272;26.932;2023-05-07T10:28:29;3.10;;;1.92;;
7965;SDS011;4028;43.272;26.932;2023-05-07T10:33:41;2.03;;;1.60;;
7965;SDS011;4028;43.272;26.932;2023-05-07T10:36:10;1.98;;;1.80;;
7965;SDS011;4028;43.272;26.932;2023-05-07T10:38:36;2.72;;;2.33;;
7965;SDS011;4028;43.272;26.932;2023-05-07T10:41:01;2.63;;;2.10;;
7965;SDS011;4028;43.272;26.932;2023-05-07T10:43:43;2.30;;;2.10;;
7965;SDS011;4028;43.272;26.932;2023-05-07T10:48:34;3.50;;;2.30;;
7965;SDS011;4028;43.272;26.932;2023-05-07T10:51:27;3.75;;;2.05;;
7965;SDS011;4028;43.272;26.932;2023-05-07T10:56:48;4.22;;;2.20;;
7965;SDS011;4028;43.272;26.932;2023-05-07T11:04:21;5.32;;;2.42;;
7965;SDS011;4028;43.272;26.932;2023-05-07T11:15:06;2.58;;;1.92;;
7965;SDS011;4028;43.272;26.932;2023-05-07T11:17:33;2.78;;;2.08;;
7965;SDS011;4028;43.272;26.932;2023-05-07T11:20:02;7.68;;;2.72;;
7965;SDS011;4028;43.272;26.932;2023-05-07T11:25:04;2.30;;;2.00;;
7965;SDS011;4028;43.272;26.932;2023-05-07T11:27:31;3.10;;;2.03;;
7965;SDS011;4028;43.272;26.932;2023-05-07T11:29:57;4.35;;;2.28;;
7965;SDS011;4028;43.272;26.932;2023-05-07T11:32:24;2.10;;;1.90;;
7965;SDS011;4028;43.272;26.932;2023-05-07T11:34:56;2.17;;;1.98;;
7965;SDS011;4028;43.272;26.932;2023-05-07T11:37:25;4.35;;;2.20;;
7965;SDS011;4028;43.272;26.932;2023-05-07T11:40:08;5.18;;;2.00;;
7965;SDS011;4028;43.272;26.932;2023-05-07T11:42:36;4.65;;;2.00;;
7965;SDS011;4028;43.272;26.932;2023-05-07T11:45:03;4.72;;;2.30;;
7965;SDS011;4028;43.272;26.932;2023-05-07T11:47:30;2.55;;;2.03;;
7965;SDS011;4028;43.272;26.932;2023-05-07T11:49:56;2.20;;;2.00;;
7965;SDS011;4028;43.272;26.932;2023-05-07T11:52:26;3.20;;;1.90;;
7965;SDS011;4028;43.272;26.932;2023-05-07T11:54:55;1.90;;;1.80;;
7965;SDS011;4028;43.272;26.932;2023-05-07T11:57:25;2.75;;;2.00;;
7965;SDS011;4028;43.272;26.932;2023-05-07T11:59:57;3.53;;;1.95;;
7965;SDS011;4028;43.272;26.932;2023-05-07T12:02:24;5.28;;;2.05;;
7965;SDS011;4028;43.272;26.932;2023-05-07T12:04:50;3.22;;;2.20;;
7965;SDS011;4028;43.272;26.932;2023-05-07T12:07:16;2.92;;;1.90;;
7965;SDS011;4028;43.272;26.932;2023-05-07T12:09:43;5.72;;;2.25;;
7965;SDS011;4028;43.272;26.932;2023-05-07T12:12:09;3.22;;;2.35;;
7965;SDS011;4028;43.272;26.932;2023-05-07T12:14:39;2.65;;;2.10;;
7965;SDS011;4028;43.272;26.932;2023-05-07T12:17:05;2.13;;;1.98;;
7965;SDS011;4028;43.272;26.932;2023-05-07T12:19:36;4.28;;;2.50;;
7965;SDS011;4028;43.272;26.932;2023-05-07T12:22:03;4.97;;;1.90;;
7965;SDS011;4028;43.272;26.932;2023-05-07T12:24:30;2.78;;;2.45;;
7965;SDS011;4028;43.272;26.932;2023-05-07T12:27:08;2.72;;;2.22;;
7965;SDS011;4028;43.272;26.932;2023-05-07T12:29:34;2.40;;;2.20;;
7965;SDS011;4028;43.272;26.932;2023-05-07T12:31:59;5.00;;;2.45;;
7965;SDS011;4028;43.272;26.932;2023-05-07T12:34:25;2.22;;;2.03;;
7965;SDS011;4028;43.272;26.932;2023-05-07T12:36:50;3.13;;;2.25;;
7965;SDS011;4028;43.272;26.932;2023-05-07T12:39:16;2.45;;;2.25;;
7965;SDS011;4028;43.272;26.932;2023-05-07T12:44:40;3.88;;;2.10;;
7965;SDS011;4028;43.272;26.932;2023-05-07T12:47:06;2.72;;;2.15;;
7965;SDS011;4028;43.272;26.932;2023-05-07T12:49:33;2.97;;;2.10;;
7965;SDS011;4028;43.272;26.932;2023-05-07T12:52:02;2.95;;;2.10;;
7965;SDS011;4028;43.272;26.932;2023-05-07T12:54:33;2.80;;;2.58;;
7965;SDS011;4028;43.272;26.932;2023-05-07T12:57:08;3.35;;;2.05;;
7965;SDS011;4028;43.272;26.932;2023-05-07T12:59:38;3.13;;;2.40;;
7965;SDS011;4028;43.272;26.932;2023-05-07T13:02:05;3.30;;;2.17;;
7965;SDS011;4028;43.272;26.932;2023-05-07T13:04:31;5.22;;;2.10;;
7965;SDS011;4028;43.272;26.932;2023-05-07T13:06:56;2.55;;;2.20;;
7965;SDS011;4028;43.272;26.932;2023-05-07T13:09:22;2.53;;;2.30;;
7965;SDS011;4028;43.272;26.932;2023-05-07T13:11:48;2.97;;;2.33;;
7965;SDS011;4028;43.272;26.932;2023-05-07T13:14:13;3.03;;;2.20;;
7965;SDS011;4028;43.272;26.932;2023-05-07T13:16:40;5.25;;;2.65;;
7965;SDS011;4028;43.272;26.932;2023-05-07T13:19:05;4.20;;;2.22;;
7965;SDS011;4028;43.272;26.932;2023-05-07T13:21:31;5.63;;;1.90;;
7965;SDS011;4028;43.272;26.932;2023-05-07T13:23:59;2.78;;;2.20;;
7965;SDS011;4028;43.272;26.932;2023-05-07T13:26:25;2.60;;;2.10;;
7965;SDS011;4028;43.272;26.932;2023-05-07T13:28:51;2.38;;;1.80;;
7965;SDS011;4028;43.272;26.932;2023-05-07T13:31:17;3.45;;;2.03;;
7965;SDS011;4028;43.272;26.932;2023-05-07T13:33:43;2.53;;;2.25;;
7965;SDS011;4028;43.272;26.932;2023-05-07T13:36:08;2.67;;;2.22;;
7965;SDS011;4028;43.272;26.932;2023-05-07T13:38:34;5.47;;;2.20;;
7965;SDS011;4028;43.272;26.932;2023-05-07T13:41:00;3.03;;;2.00;;
7965;SDS011;4028;43.272;26.932;2023-05-07T13:43:25;3.25;;;2.35;;
7965;SDS011;4028;43.272;26.932;2023-05-07T13:45:51;5.05;;;1.83;;
7965;SDS011;4028;43.272;26.932;2023-05-07T13:48:16;1.90;;;1.80;;
7965;SDS011;4028;43.272;26.932;2023-05-07T13:50:42;6.28;;;2.35;;
7965;SDS011;4028;43.272;26.932;2023-05-07T13:53:07;2.97;;;2.25;;
7965;SDS011;4028;43.272;26.932;2023-05-07T13:55:33;3.42;;;2.45;;
7965;SDS011;4028;43.272;26.932;2023-05-07T13:57:59;6.18;;;2.55;;
7965;SDS011;4028;43.272;26.932;2023-05-07T14:00:26;3.15;;;2.05;;
7965;SDS011;4028;43.272;26.932;2023-05-07T14:02:53;3.17;;;2.15;;
7965;SDS011;4028;43.272;26.932;2023-05-07T14:05:19;5.88;;;2.25;;
7965;SDS011;4028;43.272;26.932;2023-05-07T14:07:45;3.63;;;2.10;;
7965;SDS011;4028;43.272;26.932;2023-05-07T14:10:10;3.05;;;2.10;;
7965;SDS011;4028;43.272;26.932;2023-05-07T14:12:36;6.32;;;2.00;;
7965;SDS011;4028;43.272;26.932;2023-05-07T14:15:02;3.22;;;2.40;;
7965;SDS011;4028;43.272;26.932;2023-05-07T14:17:28;3.45;;;2.00;;
7965;SDS011;4028;43.272;26.932;2023-05-07T14:19:53;4.38;;;2.30;;
7965;SDS011;4028;43.272;26.932;2023-05-07T14:22:22;4.63;;;2.33;;
7965;SDS011;4028;43.272;26.932;2023-05-07T14:24:48;2.42;;;1.90;;
7965;SDS011;4028;43.272;26.932;2023-05-07T14:27:14;4.22;;;2.38;;
7965;SDS011;4028;43.272;26.932;2023-05-07T14:29:40;2.33;;;1.83;;
7965;SDS011;4028;43.272;26.932;2023-05-07T14:32:06;4.82;;;2.30;;
7965;SDS011;4028;43.272;26.932;2023-05-07T14:34:31;3.45;;;2.20;;
7965;SDS011;4028;43.272;26.932;2023-05-07T14:36:57;6.43;;;2.20;;
7965;SDS011;4028;43.272;26.932;2023-05-07T14:39:23;6.00;;;2.20;;
7965;SDS011;4028;43.272;26.932;2023-05-07T14:41:49;2.67;;;2.40;;
7965;SDS011;4028;43.272;26.932;2023-05-07T14:44:14;3.78;;;1.92;;
7965;SDS011;4028;43.272;26.932;2023-05-07T14:46:40;4.35;;;2.78;;
7965;SDS011;4028;43.272;26.932;2023-05-07T14:49:05;4.22;;;2.05;;
7965;SDS011;4028;43.272;26.932;2023-05-07T14:51:41;2.33;;;2.10;;
7965;SDS011;4028;43.272;26.932;2023-05-07T14:54:10;5.47;;;2.20;;
7965;SDS011;4028;43.272;26.932;2023-05-07T14:56:36;3.38;;;1.92;;
7965;SDS011;4028;43.272;26.932;2023-05-07T14:59:02;2.45;;;2.10;;
7965;SDS011;4028;43.272;26.932;2023-05-07T15:01:28;3.42;;;1.98;;
7965;SDS011;4028;43.272;26.932;2023-05-07T15:03:54;2.38;;;2.17;;
7965;SDS011;4028;43.272;26.932;2023-05-07T15:06:20;3.67;;;2.22;;
7965;SDS011;4028;43.272;26.932;2023-05-07T15:08:46;2.88;;;2.17;;
7965;SDS011;4028;43.272;26.932;2023-05-07T15:11:13;3.33;;;2.20;;
7965;SDS011;4028;43.272;26.932;2023-05-07T15:13:38;4.20;;;2.38;;
7965;SDS011;4028;43.272;26.932;2023-05-07T15:16:04;3.97;;;2.40;;
7965;SDS011;4028;43.272;26.932;2023-05-07T15:18:30;4.32;;;2.45;;
7965;SDS011;4028;43.272;26.932;2023-05-07T15:20:55;2.42;;;1.98;;
7965;SDS011;4028;43.272;26.932;2023-05-07T15:23:22;5.13;;;2.30;;